createdAt,value
2017-11-12T00:00:08.733Z,94673.98
2017-11-12T00:02:35.976Z,94675.69
2017-11-12T00:05:03.269Z,94669.46
2017-11-12T00:07:30.504Z,94666.44
2017-11-12T00:09:57.712Z,94675.69
2017-11-12T00:12:25.036Z,94673.05
2017-11-12T00:14:52.304Z,94680.05
2017-11-12T00:17:19.492Z,94678.91
2017-11-12T00:19:46.782Z,94662.69
2017-11-12T00:22:14.016Z,94669.09
2017-11-12T00:24:41.312Z,94658.14
2017-11-12T00:27:08.710Z,94653.06
2017-11-12T00:29:35.901Z,94658.53
2017-11-12T00:32:03.136Z,94654.18
2017-11-12T00:34:30.320Z,94665.72
2017-11-12T00:36:57.856Z,94665.14
2017-11-12T00:39:25.123Z,94667.78
2017-11-12T00:41:52.374Z,94664.20
2017-11-12T00:44:19.608Z,94661.39
2017-11-12T00:46:46.796Z,94651.97
2017-11-12T00:49:14.146Z,94661.78
2017-11-12T00:51:41.328Z,94660.45
2017-11-12T00:54:08.853Z,94650.09
2017-11-12T00:56:36.109Z,94651.41
2017-11-12T00:59:03.315Z,94657.64
2017-11-12T01:01:30.620Z,94644.23
2017-11-12T01:03:57.865Z,94637.06
2017-11-12T01:06:25.083Z,94641.23
2017-11-12T01:08:52.301Z,94636.88
2017-11-12T01:11:19.558Z,94634.42
2017-11-12T01:13:46.780Z,94624.44
2017-11-12T01:16:14.966Z,94619.90
2017-11-12T01:18:42.172Z,94613.50
2017-11-12T01:21:09.415Z,94624.07
2017-11-12T01:23:36.769Z,94612.73
2017-11-12T01:26:04.025Z,94620.50
2017-11-12T01:28:31.230Z,94624.08
2017-11-12T01:30:58.431Z,94622.38
2017-11-12T01:33:25.737Z,94613.72
2017-11-12T01:35:53.465Z,94621.83
2017-11-12T01:38:20.725Z,94613.73
2017-11-12T01:40:48.196Z,94613.53
2017-11-12T01:43:15.393Z,94614.84
2017-11-12T01:45:42.644Z,94618.63
2017-11-12T01:48:10.063Z,94621.45
2017-11-12T01:50:37.297Z,94605.81
2017-11-12T01:53:04.554Z,94611.27
2017-11-12T01:55:31.781Z,94608.28
2017-11-12T01:57:59.003Z,94592.98
2017-11-12T02:00:26.188Z,94587.70
2017-11-12T02:02:54.098Z,94583.19
2017-11-12T02:05:21.461Z,94585.28
2017-11-12T02:07:48.665Z,94571.69
2017-11-12T02:10:15.885Z,94577.36
2017-11-12T02:12:43.143Z,94595.86
2017-11-12T02:15:10.366Z,94587.94
2017-11-12T02:17:37.603Z,94589.64
2017-11-12T02:20:04.825Z,94583.98
2017-11-12T02:22:32.113Z,94583.42
2017-11-12T02:24:59.552Z,94587.95
2017-11-12T02:27:26.952Z,94586.25
2017-11-12T02:29:54.241Z,94587.78
2017-11-12T02:32:21.439Z,94588.89
2017-11-12T02:34:48.652Z,94602.69
2017-11-12T02:37:15.825Z,94612.50
2017-11-12T02:39:43.067Z,94615.53
2017-11-12T02:42:10.323Z,94617.05
2017-11-12T02:44:37.640Z,94622.52
2017-11-12T02:47:04.921Z,94620.47
2017-11-12T02:49:32.149Z,94609.70
2017-11-12T02:51:59.371Z,94611.96
2017-11-12T02:54:26.607Z,94615.20
2017-11-12T02:56:53.876Z,94627.47
2017-11-12T02:59:21.061Z,94617.28
2017-11-12T03:01:48.320Z,94626.53
2017-11-12T03:04:15.505Z,94626.33
2017-11-12T03:06:42.741Z,94628.20
2017-11-12T03:09:10.008Z,94627.65
2017-11-12T03:11:37.309Z,94621.25
2017-11-12T03:14:04.656Z,94618.02
2017-11-12T03:16:31.854Z,94618.79
2017-11-12T03:18:59.188Z,94623.69
2017-11-12T03:21:27.884Z,94624.45
2017-11-12T03:23:55.223Z,94624.84
2017-11-12T03:26:22.393Z,94632.39
2017-11-12T03:28:49.625Z,94628.80
2017-11-12T03:31:16.828Z,94612.58
2017-11-12T03:33:44.041Z,94619.77
2017-11-12T03:36:11.730Z,94617.69
2017-11-12T03:38:39.869Z,94612.02
2017-11-12T03:41:07.449Z,94618.08
2017-11-12T03:43:34.657Z,94627.15
2017-11-12T03:46:01.997Z,94622.42
2017-11-12T03:48:29.249Z,94617.31
2017-11-12T03:50:56.437Z,94617.91
2017-11-12T03:53:23.724Z,94610.72
2017-11-12T03:55:51.877Z,94607.89
2017-11-12T03:58:19.124Z,94614.68
2017-11-12T04:00:46.397Z,94619.41
2017-11-12T04:03:13.621Z,94617.36
2017-11-12T04:05:40.849Z,94615.09
2017-11-12T04:08:08.105Z,94612.45
2017-11-12T04:10:35.433Z,94611.52
2017-11-12T04:13:02.664Z,94614.52
2017-11-12T04:15:29.893Z,94621.70
2017-11-12T04:17:57.146Z,94612.81
2017-11-12T04:20:24.642Z,94622.05
2017-11-12T04:22:51.960Z,94619.62
2017-11-12T04:25:19.191Z,94617.36
2017-11-12T04:27:46.455Z,94629.80
2017-11-12T04:30:13.691Z,94621.31
2017-11-12T04:32:41.160Z,94608.11
2017-11-12T04:35:08.429Z,94610.38
2017-11-12T04:37:35.735Z,94603.95
2017-11-12T04:40:02.967Z,94614.72
2017-11-12T04:42:30.254Z,94611.31
2017-11-12T04:44:57.575Z,94614.72
2017-11-12T04:47:24.746Z,94605.86
2017-11-12T04:49:52.055Z,94598.50
2017-11-12T04:52:19.325Z,94597.17
2017-11-12T04:54:46.516Z,94594.91
2017-11-12T04:57:13.741Z,94607.18
2017-11-12T04:59:41.027Z,94600.02
2017-11-12T05:02:08.294Z,94605.66
2017-11-12T05:04:36.569Z,94605.86
2017-11-12T05:07:03.817Z,94610.00
2017-11-12T05:09:31.074Z,94610.77
2017-11-12T05:11:58.317Z,94626.62
2017-11-12T05:14:25.513Z,94631.52
2017-11-12T05:16:52.752Z,94640.20
2017-11-12T05:19:19.966Z,94648.69
2017-11-12T05:21:47.194Z,94650.95
2017-11-12T05:24:14.572Z,94647.36
2017-11-12T05:26:41.757Z,94640.41
2017-11-12T05:29:09.027Z,94646.43
2017-11-12T05:31:36.273Z,94656.05
2017-11-12T05:34:03.491Z,94659.45
2017-11-12T05:36:30.731Z,94656.81
2017-11-12T05:38:58.085Z,94658.52
2017-11-12T05:41:25.381Z,94661.16
2017-11-12T05:43:52.645Z,94662.48
2017-11-12T05:46:19.960Z,94652.27
2017-11-12T05:48:47.204Z,94650.59
2017-11-12T05:51:14.552Z,94655.67
2017-11-12T05:53:41.864Z,94659.25
2017-11-12T05:56:09.035Z,94667.77
2017-11-12T05:58:36.358Z,94661.34
2017-11-12T06:01:03.560Z,94660.22
2017-11-12T06:03:31.209Z,94659.84
2017-11-12T06:05:58.752Z,94663.41
2017-11-12T06:08:26.061Z,94666.23
2017-11-12T06:10:53.803Z,94668.87
2017-11-12T06:13:21.115Z,94678.67
2017-11-12T06:15:48.430Z,94676.58
2017-11-12T06:18:15.738Z,94669.97
2017-11-12T06:20:43.035Z,94669.77
2017-11-12T06:23:10.260Z,94673.55
2017-11-12T06:25:38.500Z,94673.72
2017-11-12T06:28:05.733Z,94671.06
2017-11-12T06:30:32.956Z,94673.11
2017-11-12T06:33:00.257Z,94673.31
2017-11-12T06:35:27.537Z,94671.23
2017-11-12T06:37:54.744Z,94665.34
2017-11-12T06:40:22.173Z,94663.64
2017-11-12T06:42:49.375Z,94671.94
2017-11-12T06:45:16.554Z,94676.07
2017-11-12T06:47:43.796Z,94668.91
2017-11-12T06:50:10.994Z,94667.58
2017-11-12T06:52:38.206Z,94678.70
2017-11-12T06:55:05.474Z,94675.11
2017-11-12T06:57:32.706Z,94684.91
2017-11-12T06:59:59.928Z,94678.48
2017-11-12T07:02:27.159Z,94684.53
2017-11-12T07:04:54.455Z,94684.14
2017-11-12T07:07:21.736Z,94691.69
2017-11-12T07:09:48.906Z,94702.98
2017-11-12T07:12:16.132Z,94702.42
2017-11-12T07:14:43.409Z,94695.82
2017-11-12T07:17:10.637Z,94695.64
2017-11-12T07:19:37.815Z,94691.64
2017-11-12T07:22:05.026Z,94702.03
2017-11-12T07:24:32.267Z,94695.59
2017-11-12T07:26:59.479Z,94684.65
2017-11-12T07:29:26.708Z,94679.36
2017-11-12T07:31:53.924Z,94683.14
2017-11-12T07:34:21.158Z,94678.63
2017-11-12T07:36:48.345Z,94671.63
2017-11-12T07:39:15.583Z,94674.06
2017-11-12T07:41:42.888Z,94664.81
2017-11-12T07:44:10.116Z,94674.99
2017-11-12T07:46:37.309Z,94670.82
2017-11-12T07:49:04.491Z,94657.05
2017-11-12T07:51:31.693Z,94659.30
2017-11-12T07:53:58.862Z,94651.76
2017-11-12T07:56:26.186Z,94655.16
2017-11-12T07:58:53.372Z,94653.25
2017-11-12T08:01:20.589Z,94650.05
2017-11-12T08:03:47.841Z,94648.55
2017-11-12T08:06:15.044Z,94649.48
2017-11-12T08:08:42.244Z,94647.39
2017-11-12T08:11:09.428Z,94641.89
2017-11-12T08:13:38.123Z,94634.73
2017-11-12T08:16:05.406Z,94645.13
2017-11-12T08:18:32.649Z,94642.48
2017-11-12T08:20:59.868Z,94640.56
2017-11-12T08:23:27.030Z,94646.80
2017-11-12T08:25:54.229Z,94655.09
2017-11-12T08:28:21.438Z,94654.53
2017-11-12T08:30:48.655Z,94658.50
2017-11-12T08:33:15.833Z,94652.82
2017-11-12T08:35:43.055Z,94649.97
2017-11-12T08:38:10.245Z,94647.33
2017-11-12T08:40:37.441Z,94651.49
2017-11-12T08:43:04.673Z,94656.56
2017-11-12T08:45:31.946Z,94642.59
2017-11-12T08:47:59.194Z,94638.83
2017-11-12T08:50:26.378Z,94640.14
2017-11-12T08:52:53.612Z,94640.31
2017-11-12T08:55:20.797Z,94644.66
2017-11-12T08:57:47.988Z,94643.34
2017-11-12T09:00:15.206Z,94636.14
2017-11-12T09:02:42.381Z,94638.22
2017-11-12T09:05:09.691Z,94640.48
2017-11-12T09:07:36.962Z,94635.19
2017-11-12T09:10:04.149Z,94627.08
2017-11-12T09:12:31.367Z,94629.13
2017-11-12T09:14:58.621Z,94629.89
2017-11-12T09:17:25.859Z,94626.09
2017-11-12T09:19:53.063Z,94621.56
2017-11-12T09:22:20.346Z,94620.03
2017-11-12T09:24:47.680Z,94622.50
2017-11-12T09:27:14.950Z,94617.03
2017-11-12T09:29:42.122Z,94615.52
2017-11-12T09:32:09.424Z,94623.06
2017-11-12T09:34:36.648Z,94626.44
2017-11-12T09:37:03.873Z,94618.72
2017-11-12T09:39:31.109Z,94622.14
2017-11-12T09:41:58.340Z,94618.52
2017-11-12T09:44:25.529Z,94611.17
2017-11-12T09:46:52.767Z,94603.03
2017-11-12T09:49:20.006Z,94603.41
2017-11-12T09:51:47.289Z,94592.83
2017-11-12T09:54:14.474Z,94592.45
2017-11-12T09:56:41.641Z,94586.22
2017-11-12T09:59:08.940Z,94586.78
2017-11-12T10:01:36.277Z,94582.42
2017-11-12T10:04:03.509Z,94573.55
2017-11-12T10:06:30.780Z,94569.20
2017-11-12T10:08:58.164Z,94570.72
2017-11-12T10:11:25.397Z,94564.84
2017-11-12T10:13:52.624Z,94554.48
2017-11-12T10:16:19.881Z,94556.91
2017-11-12T10:18:47.069Z,94544.66
2017-11-12T10:21:14.271Z,94534.44
2017-11-12T10:23:41.497Z,94526.32
2017-11-12T10:26:08.655Z,94528.59
2017-11-12T10:28:35.905Z,94530.08
2017-11-12T10:31:03.099Z,94523.67
2017-11-12T10:33:30.256Z,94517.62
2017-11-12T10:35:57.482Z,94518.77
2017-11-12T10:38:24.941Z,94517.05
2017-11-12T10:40:52.209Z,94511.38
2017-11-12T10:43:19.419Z,94513.25
2017-11-12T10:45:46.616Z,94508.72
2017-11-12T10:48:13.805Z,94504.16
2017-11-12T10:50:40.990Z,94503.60
2017-11-12T10:53:08.328Z,94511.35
2017-11-12T10:55:35.582Z,94494.52
2017-11-12T10:58:02.731Z,94494.89
2017-11-12T11:00:29.931Z,94492.06
2017-11-12T11:02:57.141Z,94495.09
2017-11-12T11:05:24.363Z,94490.53
2017-11-12T11:07:51.606Z,94483.14
2017-11-12T11:10:18.781Z,94481.66
2017-11-12T11:12:45.946Z,94478.83
2017-11-12T11:15:13.159Z,94483.14
2017-11-12T11:17:40.403Z,94485.61
2017-11-12T11:20:07.630Z,94475.59
2017-11-12T11:22:34.883Z,94472.38
2017-11-12T11:25:02.143Z,94467.47
2017-11-12T11:27:29.398Z,94458.56
2017-11-12T11:29:56.633Z,94454.80
2017-11-12T11:32:23.898Z,94453.86
2017-11-12T11:34:51.123Z,94451.00
2017-11-12T11:37:18.340Z,94437.78
2017-11-12T11:39:45.563Z,94449.30
2017-11-12T11:42:12.825Z,94433.98
2017-11-12T11:44:40.048Z,94434.17
2017-11-12T11:47:07.270Z,94432.84
2017-11-12T11:49:34.462Z,94434.73
2017-11-12T11:52:01.692Z,94431.52
2017-11-12T11:54:28.936Z,94429.27
2017-11-12T11:56:56.155Z,94424.52
2017-11-12T11:59:23.359Z,94413.72
2017-11-12T12:01:50.586Z,94408.25
2017-11-12T12:04:17.810Z,94405.02
2017-11-12T12:06:45.022Z,94412.77
2017-11-12T12:09:12.250Z,94403.12
2017-11-12T12:11:39.445Z,94400.86
2017-11-12T12:14:06.689Z,94398.77
2017-11-12T12:16:34.045Z,94395.73
2017-11-12T12:19:01.276Z,94399.30
2017-11-12T12:21:28.462Z,94409.32
2017-11-12T12:23:55.736Z,94387.95
2017-11-12T12:26:22.954Z,94398.91
2017-11-12T12:28:50.153Z,94397.59
2017-11-12T12:31:17.325Z,94393.05
2017-11-12T12:33:44.596Z,94392.66
2017-11-12T12:36:11.819Z,94386.20
2017-11-12T12:38:39.009Z,94386.20
2017-11-12T12:41:06.311Z,94386.75
2017-11-12T12:43:33.531Z,94383.92
2017-11-12T12:46:00.688Z,94379.73
2017-11-12T12:48:27.856Z,94380.68
2017-11-12T12:50:55.083Z,94377.09
2017-11-12T12:53:22.272Z,94372.00
2017-11-12T12:55:49.477Z,94373.11
2017-11-12T12:58:16.666Z,94372.54
2017-11-12T13:00:43.929Z,94368.37
2017-11-12T13:03:11.152Z,94378.02
2017-11-12T13:05:38.396Z,94362.91
2017-11-12T13:08:05.621Z,94359.69
2017-11-12T13:10:32.948Z,94363.45
2017-11-12T13:13:00.236Z,94356.83
2017-11-12T13:15:27.419Z,94354.56
2017-11-12T13:17:54.632Z,94349.27
2017-11-12T13:20:21.868Z,94355.33
2017-11-12T13:22:49.094Z,94349.44
2017-11-12T13:25:16.291Z,94356.43
2017-11-12T13:27:43.468Z,94355.11
2017-11-12T13:30:10.669Z,94336.69
2017-11-12T13:32:37.908Z,94342.09
2017-11-12T13:35:05.146Z,94343.02
2017-11-12T13:37:32.679Z,94344.15
2017-11-12T13:39:59.913Z,94344.15
2017-11-12T13:42:27.099Z,94340.18
2017-11-12T13:44:54.332Z,94341.88
2017-11-12T13:47:21.806Z,94339.61
2017-11-12T13:49:49.033Z,94336.03
2017-11-12T13:52:16.207Z,94336.19
2017-11-12T13:54:43.392Z,94342.05
2017-11-12T13:57:10.623Z,94336.95
2017-11-12T13:59:37.825Z,94340.92
2017-11-12T14:02:05.004Z,94342.62
2017-11-12T14:04:32.312Z,94338.81
2017-11-12T14:06:59.529Z,94342.78
2017-11-12T14:09:26.761Z,94340.33
2017-11-12T14:11:53.988Z,94341.30
2017-11-12T14:14:21.220Z,94336.55
2017-11-12T14:16:48.409Z,94338.59
2017-11-12T14:19:15.633Z,94343.73
2017-11-12T14:21:42.830Z,94336.17
2017-11-12T14:24:10.008Z,94334.25
2017-11-12T14:26:37.211Z,94337.33
2017-11-12T14:29:04.415Z,94335.25
2017-11-12T14:31:31.614Z,94337.52
2017-11-12T14:33:58.823Z,94339.78
2017-11-12T14:36:26.036Z,94341.31
2017-11-12T14:38:53.291Z,94338.84
2017-11-12T14:41:20.504Z,94341.31
2017-11-12T14:43:47.705Z,94340.94
2017-11-12T14:46:15.056Z,94341.12
2017-11-12T14:48:42.234Z,94347.17
2017-11-12T14:51:09.459Z,94342.05
2017-11-12T14:53:36.656Z,94342.83
2017-11-12T14:56:03.849Z,94338.48
2017-11-12T14:58:31.065Z,94334.89
2017-11-12T15:00:58.243Z,94336.43
2017-11-12T15:03:25.429Z,94340.96
2017-11-12T15:05:52.684Z,94334.91
2017-11-12T15:08:19.903Z,94342.50
2017-11-12T15:10:47.148Z,94338.53
2017-11-12T15:13:14.351Z,94347.03
2017-11-12T15:15:41.534Z,94344.57
2017-11-12T15:18:08.746Z,94342.50
2017-11-12T15:20:35.924Z,94334.91
2017-11-12T15:23:03.142Z,94339.26
2017-11-12T15:25:30.333Z,94334.56
2017-11-12T15:27:57.552Z,94332.48
2017-11-12T15:30:24.745Z,94327.57
2017-11-12T15:32:52.036Z,94323.06
2017-11-12T15:35:19.240Z,94320.22
2017-11-12T15:37:46.418Z,94318.17
2017-11-12T15:40:13.569Z,94323.81
2017-11-12T15:42:40.769Z,94316.84
2017-11-12T15:45:07.977Z,94323.48
2017-11-12T15:47:35.212Z,94315.73
2017-11-12T15:50:02.395Z,94306.87
2017-11-12T15:52:29.617Z,94306.15
2017-11-12T15:54:56.778Z,94299.94
2017-11-12T15:57:23.925Z,94304.47
2017-11-12T15:59:51.172Z,94309.59
2017-11-12T16:02:18.357Z,94309.05
2017-11-12T16:04:45.937Z,94318.88
2017-11-12T16:07:13.134Z,94320.55
2017-11-12T16:09:40.456Z,94324.33
2017-11-12T16:12:07.698Z,94324.52
2017-11-12T16:14:34.908Z,94323.59
2017-11-12T16:17:02.108Z,94321.14
2017-11-12T16:19:29.315Z,94330.39
2017-11-12T16:21:56.477Z,94329.07
2017-11-12T16:24:23.725Z,94324.73
2017-11-12T16:26:50.935Z,94338.55
2017-11-12T16:29:18.115Z,94338.14
2017-11-12T16:31:45.336Z,94333.02
2017-11-12T16:34:12.592Z,94336.38
2017-11-12T16:36:39.834Z,94331.63
2017-11-12T16:39:07.016Z,94321.97
2017-11-12T16:41:34.198Z,94319.11
2017-11-12T16:44:01.429Z,94319.28
2017-11-12T16:46:28.686Z,94321.13
2017-11-12T16:48:55.969Z,94321.09
2017-11-12T16:51:23.170Z,94315.43
2017-11-12T16:53:50.384Z,94317.51
2017-11-12T16:56:17.596Z,94317.67
2017-11-12T16:58:44.782Z,94319.16
2017-11-12T17:01:11.962Z,94322.19
2017-11-12T17:03:39.198Z,94318.97
2017-11-12T17:06:06.417Z,94307.61
2017-11-12T17:08:33.571Z,94298.89
2017-11-12T17:11:00.762Z,94309.85
2017-11-12T17:13:27.961Z,94300.03
2017-11-12T17:15:55.113Z,94304.92
2017-11-12T17:18:22.353Z,94299.41
2017-11-12T17:20:49.527Z,94301.88
2017-11-12T17:23:16.750Z,94296.58
2017-11-12T17:25:43.959Z,94295.04
2017-11-12T17:28:11.121Z,94292.20
2017-11-12T17:30:38.404Z,94292.94
2017-11-12T17:33:05.569Z,94288.40
2017-11-12T17:35:33.045Z,94280.46
2017-11-12T17:38:00.269Z,94282.33
2017-11-12T17:40:27.446Z,94289.89
2017-11-12T17:42:54.613Z,94282.33
2017-11-12T17:45:21.806Z,94265.51
2017-11-12T17:47:48.955Z,94264.94
2017-11-12T17:50:16.171Z,94281.55
2017-11-12T17:52:43.321Z,94274.75
2017-11-12T17:55:10.524Z,94281.69
2017-11-12T17:57:37.735Z,94285.66
2017-11-12T18:00:04.919Z,94292.64
2017-11-12T18:02:32.143Z,94293.19
2017-11-12T18:04:59.391Z,94284.47
2017-11-12T18:07:26.625Z,94276.74
2017-11-12T18:09:53.814Z,94270.31
2017-11-12T18:12:21.022Z,94276.20
2017-11-12T18:14:48.224Z,94273.18
2017-11-12T18:17:15.446Z,94274.88
2017-11-12T18:19:42.667Z,94279.58
2017-11-12T18:22:09.843Z,94284.69
2017-11-12T18:24:37.058Z,94285.25
2017-11-12T18:27:04.267Z,94290.73
2017-11-12T18:29:31.480Z,94285.80
2017-11-12T18:31:58.664Z,94280.50
2017-11-12T18:34:25.881Z,94268.97
2017-11-12T18:36:53.112Z,94271.62
2017-11-12T18:39:20.332Z,94259.70
2017-11-12T18:41:47.518Z,94249.91
2017-11-12T18:44:14.696Z,94254.09
2017-11-12T18:46:41.889Z,94251.05
2017-11-12T18:49:09.088Z,94252.72
2017-11-12T18:51:36.419Z,94254.42
2017-11-12T18:54:03.628Z,94252.15
2017-11-12T18:56:30.880Z,94245.75
2017-11-12T18:58:58.078Z,94241.56
2017-11-12T19:01:25.314Z,94229.47
2017-11-12T19:03:52.555Z,94235.89
2017-11-12T19:06:19.838Z,94230.59
2017-11-12T19:08:47.053Z,94233.78
2017-11-12T19:11:14.286Z,94229.81
2017-11-12T19:13:41.528Z,94239.84
2017-11-12T19:16:08.695Z,94233.25
2017-11-12T19:18:35.926Z,94237.00
2017-11-12T19:21:03.114Z,94222.06
2017-11-12T19:23:30.333Z,94229.09
2017-11-12T19:25:57.525Z,94227.39
2017-11-12T19:28:24.822Z,94238.94
2017-11-12T19:30:52.089Z,94235.19
2017-11-12T19:33:19.344Z,94234.46
2017-11-12T19:35:46.557Z,94230.73
2017-11-12T19:38:13.726Z,94229.25
2017-11-12T19:40:40.974Z,94226.63
2017-11-12T19:43:08.223Z,94227.79
2017-11-12T19:45:35.477Z,94228.92
2017-11-12T19:48:02.687Z,94223.09
2017-11-12T19:50:29.847Z,94212.38
2017-11-12T19:52:57.148Z,94218.45
2017-11-12T19:55:24.408Z,94222.25
2017-11-12T19:57:51.674Z,94227.95
2017-11-12T20:00:18.885Z,94232.50
2017-11-12T20:02:46.136Z,94237.25
2017-11-12T20:05:13.285Z,94237.44
2017-11-12T20:07:40.514Z,94229.56
2017-11-12T20:10:07.957Z,94234.25
2017-11-12T20:12:35.553Z,94224.30
2017-11-12T20:15:03.486Z,94219.56
2017-11-12T20:17:30.653Z,94224.70
2017-11-12T20:19:57.942Z,94208.47
2017-11-12T20:22:25.172Z,94217.00
2017-11-12T20:24:59.530Z,94212.47
2017-11-12T20:27:26.856Z,94225.36
2017-11-12T20:29:54.070Z,94222.72
2017-11-12T20:32:21.246Z,94209.52
2017-11-12T20:34:48.446Z,94208.38
2017-11-12T20:37:15.627Z,94202.94
2017-11-12T20:39:42.894Z,94220.52
2017-11-12T20:42:10.085Z,94218.83
2017-11-12T20:44:37.402Z,94230.34
2017-11-12T20:47:04.632Z,94210.35
2017-11-12T20:49:31.923Z,94217.74
2017-11-12T20:51:59.123Z,94217.17
2017-11-12T20:57:27.914Z,94223.08
2017-11-12T20:59:55.151Z,94221.03
2017-11-12T21:02:22.370Z,94220.62
2017-11-12T21:04:49.566Z,94214.17
2017-11-12T21:07:16.792Z,94224.78
2017-11-12T21:12:47.271Z,94209.70
2017-11-12T21:15:14.456Z,94205.95
2017-11-12T21:17:41.731Z,94216.33
2017-11-12T21:20:08.886Z,94214.06
2017-11-12T21:22:36.065Z,94203.13
2017-11-12T21:25:06.440Z,94202.97
2017-11-12T21:27:33.604Z,94209.20
2017-11-12T21:30:00.979Z,94195.81
2017-11-12T21:32:28.171Z,94201.10
2017-11-12T21:34:56.128Z,94197.33
2017-11-12T21:37:23.414Z,94208.47
2017-11-12T21:42:36.267Z,94195.08
2017-11-12T21:45:03.456Z,94195.30
2017-11-12T21:47:30.671Z,94187.55
2017-11-12T21:49:57.883Z,94188.88
2017-11-12T21:52:25.101Z,94196.23
2017-11-12T21:54:52.294Z,94177.36
2017-11-12T21:57:19.505Z,94184.18
2017-11-12T21:59:54.257Z,94179.67
2017-11-12T22:02:28.333Z,94178.35
2017-11-12T22:04:55.612Z,94191.19
2017-11-12T22:07:22.808Z,94173.06
2017-11-12T22:09:50.119Z,94173.06
2017-11-12T22:12:17.314Z,94167.02
2017-11-12T22:14:44.465Z,94176.86
2017-11-12T22:17:11.688Z,94168.55
2017-11-12T22:19:38.879Z,94166.64
2017-11-12T22:22:06.094Z,94159.48
2017-11-12T22:24:33.324Z,94163.08
2017-11-12T22:27:00.577Z,94163.30
2017-11-12T22:29:27.838Z,94153.66
2017-11-12T22:31:55.053Z,94165.55
2017-11-12T22:34:22.261Z,94152.55
2017-11-12T22:36:49.500Z,94156.16
2017-11-12T22:39:16.694Z,94162.39
2017-11-12T22:41:43.909Z,94139.17
2017-11-12T22:44:11.161Z,94147.70
2017-11-12T22:46:38.406Z,94138.63
2017-11-12T22:49:05.620Z,94132.23
2017-11-12T22:51:32.792Z,94125.47
2017-11-12T22:54:00.022Z,94132.08
2017-11-12T22:56:27.201Z,94124.71
2017-11-12T22:58:54.382Z,94120.75
2017-11-12T23:01:21.601Z,94123.23
2017-11-12T23:03:48.869Z,94124.90
2017-11-12T23:06:18.729Z,94121.72
2017-11-12T23:08:46.038Z,94113.41
2017-11-12T23:11:13.300Z,94109.09
2017-11-12T23:13:40.481Z,94105.48
2017-11-12T23:16:07.648Z,94103.23
2017-11-12T23:18:34.961Z,94099.66
2017-11-12T23:21:02.137Z,94092.67
2017-11-12T23:23:29.457Z,94089.86
2017-11-12T23:25:56.669Z,94087.78
2017-11-12T23:28:23.887Z,94095.17
2017-11-12T23:30:51.079Z,94088.95
2017-11-12T23:33:18.367Z,94086.52
2017-11-12T23:35:45.562Z,94080.09
2017-11-12T23:38:14.002Z,94078.61
2017-11-12T23:43:13.518Z,94075.78
2017-11-12T23:45:40.759Z,94060.14
2017-11-12T23:48:07.953Z,94062.38
2017-11-12T23:50:35.240Z,94073.70
2017-11-12T23:53:02.482Z,94064.86
2017-11-12T23:55:29.672Z,94064.67
2017-11-12T23:57:56.910Z,94063.54
